RYR612 EGSS-LFBL
Flight info
| Callsign | RYR612 |
|---|---|
| Flight time | 1h 14m |
| Altitude | 32000 |
| Route | NUGBO M183 SILVA Q41 COWLY T71 VAPID N859 DRAKE L151 SITET UN859 VANAD A34 AMB R10 BALAN |
| Aircraft | B38M/M-SDE1FGHILORVWXY/HB1 |
Departure
| Time | 2026-05-04 13:57 |
|---|---|
| Airport | London Stansted Airport (EGSS) |
Arrival
| Time | 2026-05-04 15:12 |
|---|---|
| Airport | Limoges Airport (LFBL) |
| Time | Latitude | Longitude | Altitude | Speed | Heading |
|---|---|---|---|---|---|
| 2026-05-04 13:17 | 51.89418 | 0.25897 | 359 ft | 0 kts | 223° |
| 2026-05-04 13:43 | 51.89428 | 0.25912 | 361 ft | 4 kts | 223° |
| 2026-05-04 13:43 | 51.89448 | 0.25941 | 359 ft | 3 kts | 223° |
| 2026-05-04 13:43 | 51.89460 | 0.25965 | 357 ft | 4 kts | 261° |
| 2026-05-04 13:43 | 51.89453 | 0.25993 | 359 ft | 4 kts | 313° |
| 2026-05-04 13:44 | 51.89441 | 0.26014 | 359 ft | 1 kts | 313° |
| 2026-05-04 13:47 | 51.89442 | 0.26013 | 359 ft | 0 kts | 313° |
| 2026-05-04 13:49 | 51.89445 | 0.26008 | 359 ft | 2 kts | 313° |
| 2026-05-04 13:49 | 51.89471 | 0.25963 | 356 ft | 10 kts | 313° |
| 2026-05-04 13:49 | 51.89528 | 0.25858 | 354 ft | 10 kts | 295° |
| 2026-05-04 13:49 | 51.89498 | 0.25759 | 353 ft | 11 kts | 222° |
| 2026-05-04 13:50 | 51.89425 | 0.25651 | 351 ft | 16 kts | 222° |
| 2026-05-04 13:50 | 51.89336 | 0.25520 | 351 ft | 18 kts | 222° |
| 2026-05-04 13:50 | 51.89239 | 0.25372 | 358 ft | 20 kts | 222° |
| 2026-05-04 13:50 | 51.89131 | 0.25212 | 358 ft | 22 kts | 222° |
| 2026-05-04 13:51 | 51.89019 | 0.25043 | 357 ft | 23 kts | 223° |
| 2026-05-04 13:51 | 51.88905 | 0.24871 | 354 ft | 21 kts | 222° |
| 2026-05-04 13:51 | 51.88796 | 0.24709 | 354 ft | 21 kts | 222° |
| 2026-05-04 13:51 | 51.88681 | 0.24546 | 351 ft | 23 kts | 227° |
| 2026-05-04 13:52 | 51.88449 | 0.24183 | 358 ft | 24 kts | 221° |
| 2026-05-04 13:52 | 51.88331 | 0.24009 | 354 ft | 23 kts | 223° |
| 2026-05-04 13:52 | 51.88209 | 0.23826 | 351 ft | 24 kts | 223° |
| 2026-05-04 13:53 | 51.88094 | 0.23656 | 354 ft | 23 kts | 223° |
| 2026-05-04 13:53 | 51.87976 | 0.23477 | 351 ft | 24 kts | 223° |
| 2026-05-04 13:53 | 51.87856 | 0.23298 | 352 ft | 23 kts | 223° |
| 2026-05-04 13:54 | 51.87770 | 0.22963 | 351 ft | 17 kts | 313° |
| 2026-05-04 13:54 | 51.87764 | 0.22854 | 358 ft | 9 kts | 218° |
| 2026-05-04 13:54 | 51.87589 | 0.22599 | 357 ft | 23 kts | 223° |
| 2026-05-04 13:55 | 51.87521 | 0.22437 | 354 ft | 16 kts | 287° |
| 2026-05-04 13:55 | 51.87691 | 0.22266 | 342 ft | 0 kts | 42° |
| 2026-05-04 13:56 | 51.87696 | 0.22273 | 347 ft | 5 kts | 42° |
| 2026-05-04 13:56 | 51.88439 | 0.23385 | 353 ft | 139 kts | 42° |
| 2026-05-04 13:57 | 51.89232 | 0.24594 | 702 ft | 162 kts | 41° |
| 2026-05-04 13:57 | 51.90072 | 0.25889 | 1452 ft | 172 kts | 41° |
| 2026-05-04 13:58 | 51.93529 | 0.29958 | 3466 ft | 233 kts | 5° |
| 2026-05-04 13:58 | 51.96480 | 0.27584 | 4667 ft | 262 kts | 302° |
| 2026-05-04 13:58 | 51.97115 | 0.24820 | 4803 ft | 264 kts | 276° |
| 2026-05-04 13:59 | 51.97223 | 0.21841 | 4942 ft | 266 kts | 271° |
| 2026-05-04 13:59 | 51.97277 | 0.18842 | 4983 ft | 267 kts | 271° |
| 2026-05-04 13:59 | 51.97395 | 0.12834 | 6212 ft | 270 kts | 271° |
| 2026-05-04 14:00 | 51.97469 | 0.09797 | 6967 ft | 269 kts | 271° |
| 2026-05-04 14:00 | 51.97614 | 0.03695 | 8387 ft | 271 kts | 268° |
| 2026-05-04 14:00 | 51.97520 | 0.00607 | 8985 ft | 276 kts | 265° |
| 2026-05-04 14:01 | 51.97419 | -0.02493 | 9731 ft | 277 kts | 266° |
| 2026-05-04 14:01 | 51.97325 | -0.05641 | 10251 ft | 284 kts | 266° |
| 2026-05-04 14:01 | 51.96556 | -0.12287 | 10736 ft | 315 kts | 256° |
| 2026-05-04 14:02 | 51.96074 | -0.15747 | 11348 ft | 315 kts | 257° |
| 2026-05-04 14:02 | 51.95604 | -0.19224 | 11971 ft | 319 kts | 257° |
| 2026-05-04 14:02 | 51.95138 | -0.22730 | 12576 ft | 322 kts | 257° |
| 2026-05-04 14:02 | 51.94669 | -0.26305 | 13240 ft | 327 kts | 257° |
| 2026-05-04 14:03 | 51.94179 | -0.29921 | 13931 ft | 329 kts | 253° |
| 2026-05-04 14:03 | 51.93192 | -0.33202 | 14538 ft | 330 kts | 231° |
| 2026-05-04 14:03 | 51.91477 | -0.35737 | 15216 ft | 333 kts | 213° |
| 2026-05-04 14:03 | 51.89502 | -0.37751 | 15771 ft | 339 kts | 212° |
| 2026-05-04 14:04 | 51.85517 | -0.41926 | 16036 ft | 340 kts | 213° |
| 2026-05-04 14:04 | 51.83536 | -0.44014 | 16040 ft | 340 kts | 213° |
| 2026-05-04 14:04 | 51.81567 | -0.46091 | 16044 ft | 340 kts | 213° |
| 2026-05-04 14:05 | 51.77624 | -0.50248 | 16041 ft | 341 kts | 213° |
| 2026-05-04 14:05 | 51.75637 | -0.52339 | 16039 ft | 341 kts | 213° |
| 2026-05-04 14:05 | 51.73649 | -0.54430 | 16056 ft | 341 kts | 213° |
| 2026-05-04 14:06 | 51.71661 | -0.56518 | 16053 ft | 341 kts | 213° |
| 2026-05-04 14:06 | 51.69668 | -0.58612 | 16344 ft | 343 kts | 212° |
| 2026-05-04 14:06 | 51.67668 | -0.60705 | 17082 ft | 344 kts | 212° |
| 2026-05-04 14:06 | 51.65647 | -0.62823 | 17702 ft | 348 kts | 212° |
| 2026-05-04 14:07 | 51.63608 | -0.64957 | 18332 ft | 351 kts | 212° |
| 2026-05-04 14:07 | 51.61550 | -0.67109 | 18869 ft | 354 kts | 212° |
| 2026-05-04 14:07 | 51.59485 | -0.69264 | 19396 ft | 356 kts | 212° |
| 2026-05-04 14:07 | 51.57399 | -0.71440 | 19910 ft | 359 kts | 212° |
| 2026-05-04 14:08 | 51.55296 | -0.73631 | 20439 ft | 361 kts | 212° |
| 2026-05-04 14:08 | 51.53187 | -0.75825 | 20976 ft | 363 kts | 212° |
| 2026-05-04 14:08 | 51.51061 | -0.78034 | 21458 ft | 365 kts | 212° |
| 2026-05-04 14:08 | 51.48919 | -0.80258 | 21978 ft | 367 kts | 212° |
| 2026-05-04 14:09 | 51.44599 | -0.84734 | 23008 ft | 372 kts | 213° |
| 2026-05-04 14:09 | 51.42413 | -0.86995 | 23511 ft | 375 kts | 213° |
| 2026-05-04 14:10 | 51.38011 | -0.91538 | 24393 ft | 379 kts | 213° |
| 2026-05-04 14:10 | 51.35793 | -0.93824 | 24858 ft | 381 kts | 213° |
| 2026-05-04 14:10 | 51.33560 | -0.96122 | 25332 ft | 382 kts | 212° |
| 2026-05-04 14:10 | 51.31316 | -0.98429 | 25774 ft | 384 kts | 212° |
| 2026-05-04 14:11 | 51.29061 | -1.00702 | 26298 ft | 383 kts | 208° |
| 2026-05-04 14:11 | 51.23889 | -1.02278 | 27133 ft | 389 kts | 173° |
| 2026-05-04 14:11 | 51.21268 | -1.01139 | 27544 ft | 394 kts | 160° |
| 2026-05-04 14:12 | 51.18735 | -0.99461 | 27951 ft | 396 kts | 160° |
| 2026-05-04 14:12 | 51.16200 | -0.97718 | 28367 ft | 398 kts | 159° |
| 2026-05-04 14:12 | 51.11130 | -0.94117 | 29151 ft | 402 kts | 159° |
| 2026-05-04 14:13 | 51.08566 | -0.92271 | 29437 ft | 407 kts | 158° |
| 2026-05-04 14:13 | 51.05983 | -0.90404 | 29794 ft | 409 kts | 158° |
| 2026-05-04 14:13 | 51.03389 | -0.88530 | 30148 ft | 411 kts | 158° |
| 2026-05-04 14:13 | 51.00782 | -0.86647 | 30450 ft | 413 kts | 158° |
| 2026-05-04 14:14 | 50.98163 | -0.84758 | 30761 ft | 414 kts | 158° |
| 2026-05-04 14:14 | 50.92926 | -0.80987 | 31532 ft | 413 kts | 158° |
| 2026-05-04 14:14 | 50.90320 | -0.79114 | 31922 ft | 412 kts | 158° |
| 2026-05-04 14:15 | 50.85138 | -0.75259 | 32711 ft | 412 kts | 150° |
| 2026-05-04 14:15 | 50.80383 | -0.70166 | 32983 ft | 411 kts | 148° |
| 2026-05-04 14:16 | 50.73322 | -0.62640 | 33007 ft | 409 kts | 148° |
| 2026-05-04 14:17 | 50.66240 | -0.55107 | 33012 ft | 410 kts | 148° |
| 2026-05-04 14:18 | 50.59154 | -0.47603 | 33006 ft | 408 kts | 148° |
| 2026-05-04 14:19 | 50.49723 | -0.37658 | 33004 ft | 408 kts | 148° |
| 2026-05-04 14:19 | 50.44999 | -0.32696 | 33000 ft | 408 kts | 148° |
| 2026-05-04 14:20 | 50.40278 | -0.27746 | 32995 ft | 408 kts | 148° |
| 2026-05-04 14:20 | 50.35554 | -0.22809 | 32998 ft | 408 kts | 148° |
| 2026-05-04 14:21 | 50.28481 | -0.15436 | 32994 ft | 408 kts | 149° |
| 2026-05-04 14:21 | 50.23757 | -0.10527 | 32994 ft | 408 kts | 149° |
| 2026-05-04 14:22 | 50.18862 | -0.06153 | 33003 ft | 404 kts | 158° |
| 2026-05-04 14:22 | 50.13713 | -0.02580 | 32987 ft | 406 kts | 158° |
| 2026-05-04 14:23 | 50.05757 | 0.01668 | 32977 ft | 405 kts | 167° |
| 2026-05-04 14:24 | 50.00295 | 0.03830 | 32989 ft | 405 kts | 167° |
| 2026-05-04 14:24 | 49.94832 | 0.05980 | 32987 ft | 405 kts | 167° |
| 2026-05-04 14:25 | 49.89370 | 0.08124 | 32988 ft | 405 kts | 167° |
| 2026-05-04 14:25 | 49.81188 | 0.11326 | 32990 ft | 405 kts | 167° |
| 2026-05-04 14:26 | 49.75727 | 0.13456 | 32990 ft | 405 kts | 167° |
| 2026-05-04 14:26 | 49.70265 | 0.15583 | 32991 ft | 405 kts | 167° |
| 2026-05-04 14:27 | 49.64815 | 0.17771 | 32992 ft | 405 kts | 167° |
| 2026-05-04 14:27 | 49.59366 | 0.19966 | 32996 ft | 405 kts | 167° |
| 2026-05-04 14:28 | 49.53935 | 0.22147 | 32995 ft | 404 kts | 167° |
| 2026-05-04 14:28 | 49.48491 | 0.24328 | 32992 ft | 404 kts | 167° |
| 2026-05-04 14:29 | 49.37670 | 0.28648 | 32992 ft | 403 kts | 167° |
| 2026-05-04 14:30 | 49.32249 | 0.30806 | 32993 ft | 403 kts | 167° |
| 2026-05-04 14:31 | 49.24141 | 0.34228 | 32980 ft | 402 kts | 166° |
| 2026-05-04 14:32 | 49.14253 | 0.38382 | 32962 ft | 402 kts | 166° |
| 2026-05-04 14:32 | 49.08863 | 0.40639 | 32963 ft | 402 kts | 166° |
| 2026-05-04 14:33 | 49.03468 | 0.42894 | 32958 ft | 401 kts | 166° |
| 2026-05-04 14:33 | 48.98083 | 0.45138 | 32952 ft | 402 kts | 166° |
| 2026-05-04 14:34 | 48.92689 | 0.47382 | 32958 ft | 402 kts | 166° |
| 2026-05-04 14:34 | 48.87297 | 0.49619 | 32960 ft | 402 kts | 166° |
| 2026-05-04 14:35 | 48.81914 | 0.51848 | 32959 ft | 402 kts | 166° |
| 2026-05-04 14:35 | 48.76514 | 0.54011 | 32957 ft | 401 kts | 167° |
| 2026-05-04 14:36 | 48.71104 | 0.56136 | 32961 ft | 402 kts | 167° |
| 2026-05-04 14:36 | 48.65702 | 0.58257 | 32981 ft | 401 kts | 167° |
| 2026-05-04 14:37 | 48.60349 | 0.60353 | 32956 ft | 401 kts | 167° |
| 2026-05-04 14:37 | 48.54945 | 0.62468 | 32920 ft | 401 kts | 167° |
| 2026-05-04 14:38 | 48.49552 | 0.64635 | 32956 ft | 401 kts | 166° |
| 2026-05-04 14:38 | 48.44162 | 0.66826 | 32949 ft | 401 kts | 166° |
| 2026-05-04 14:39 | 48.38770 | 0.69011 | 32949 ft | 402 kts | 166° |
| 2026-05-04 14:39 | 48.33386 | 0.71186 | 32947 ft | 401 kts | 167° |
| 2026-05-04 14:40 | 48.25294 | 0.74442 | 32943 ft | 401 kts | 167° |
| 2026-05-04 14:40 | 48.19895 | 0.76569 | 32943 ft | 401 kts | 167° |
| 2026-05-04 14:41 | 48.14488 | 0.78697 | 32944 ft | 402 kts | 167° |
| 2026-05-04 14:42 | 48.03678 | 0.82939 | 32943 ft | 402 kts | 167° |
| 2026-05-04 14:42 | 47.98273 | 0.85054 | 32913 ft | 401 kts | 167° |
| 2026-05-04 14:43 | 47.92871 | 0.87162 | 32937 ft | 401 kts | 167° |
| 2026-05-04 14:43 | 47.87482 | 0.89262 | 32929 ft | 401 kts | 167° |
| 2026-05-04 14:44 | 47.82112 | 0.91348 | 32878 ft | 389 kts | 167° |
| 2026-05-04 14:44 | 47.79529 | 0.92349 | 32654 ft | 380 kts | 168° |
| 2026-05-04 14:44 | 47.76983 | 0.93335 | 32214 ft | 376 kts | 168° |
| 2026-05-04 14:45 | 47.74458 | 0.94312 | 31714 ft | 375 kts | 168° |
| 2026-05-04 14:45 | 47.71944 | 0.95284 | 31250 ft | 372 kts | 168° |
| 2026-05-04 14:45 | 47.69440 | 0.96251 | 30796 ft | 370 kts | 168° |
| 2026-05-04 14:45 | 47.66957 | 0.97209 | 30351 ft | 368 kts | 168° |
| 2026-05-04 14:46 | 47.64497 | 0.98157 | 29908 ft | 365 kts | 167° |
| 2026-05-04 14:46 | 47.62047 | 0.99101 | 29404 ft | 363 kts | 167° |
| 2026-05-04 14:46 | 47.59615 | 1.00036 | 28961 ft | 359 kts | 167° |
| 2026-05-04 14:46 | 47.57210 | 1.00960 | 28536 ft | 355 kts | 168° |
| 2026-05-04 14:47 | 47.54831 | 1.01874 | 28128 ft | 351 kts | 168° |
| 2026-05-04 14:47 | 47.52472 | 1.02779 | 27722 ft | 348 kts | 168° |
| 2026-05-04 14:47 | 47.50140 | 1.03672 | 27324 ft | 345 kts | 168° |
| 2026-05-04 14:47 | 47.47853 | 1.04548 | 26930 ft | 343 kts | 168° |
| 2026-05-04 14:48 | 47.45553 | 1.05428 | 26539 ft | 340 kts | 168° |
| 2026-05-04 14:48 | 47.43269 | 1.06256 | 26130 ft | 337 kts | 173° |
| 2026-05-04 14:48 | 47.40952 | 1.06355 | 25705 ft | 333 kts | 183° |
| 2026-05-04 14:48 | 47.38648 | 1.06314 | 25389 ft | 329 kts | 182° |
| 2026-05-04 14:49 | 47.36369 | 1.06278 | 25057 ft | 326 kts | 182° |
| 2026-05-04 14:49 | 47.34115 | 1.06232 | 24721 ft | 323 kts | 182° |
| 2026-05-04 14:49 | 47.31910 | 1.06184 | 24389 ft | 320 kts | 182° |
| 2026-05-04 14:49 | 47.29689 | 1.06133 | 24052 ft | 318 kts | 182° |
| 2026-05-04 14:50 | 47.27486 | 1.06082 | 23721 ft | 316 kts | 182° |
| 2026-05-04 14:50 | 47.25296 | 1.06031 | 23368 ft | 314 kts | 182° |
| 2026-05-04 14:50 | 47.23125 | 1.05980 | 22988 ft | 311 kts | 182° |
| 2026-05-04 14:50 | 47.20970 | 1.05929 | 22642 ft | 308 kts | 182° |
| 2026-05-04 14:51 | 47.18843 | 1.05880 | 22315 ft | 304 kts | 182° |
| 2026-05-04 14:51 | 47.16733 | 1.05830 | 21998 ft | 303 kts | 182° |
| 2026-05-04 14:51 | 47.14612 | 1.05781 | 21679 ft | 309 kts | 182° |
| 2026-05-04 14:51 | 47.12447 | 1.05730 | 21357 ft | 313 kts | 182° |
| 2026-05-04 14:52 | 47.10271 | 1.05679 | 21033 ft | 313 kts | 182° |
| 2026-05-04 14:52 | 47.08096 | 1.05629 | 20707 ft | 312 kts | 182° |
| 2026-05-04 14:52 | 47.05928 | 1.05578 | 20378 ft | 311 kts | 182° |
| 2026-05-04 14:52 | 47.03769 | 1.05528 | 20056 ft | 310 kts | 182° |
| 2026-05-04 14:53 | 47.01610 | 1.05448 | 19678 ft | 311 kts | 183° |
| 2026-05-04 14:53 | 46.99462 | 1.05353 | 19371 ft | 308 kts | 183° |
| 2026-05-04 14:53 | 46.97335 | 1.05262 | 19063 ft | 305 kts | 183° |
| 2026-05-04 14:53 | 46.95225 | 1.05171 | 18752 ft | 302 kts | 183° |
| 2026-05-04 14:54 | 46.93132 | 1.05083 | 18441 ft | 300 kts | 183° |
| 2026-05-04 14:54 | 46.91082 | 1.04996 | 18126 ft | 297 kts | 183° |
| 2026-05-04 14:54 | 46.89031 | 1.04910 | 17783 ft | 295 kts | 183° |
| 2026-05-04 14:54 | 46.86983 | 1.04823 | 17404 ft | 294 kts | 183° |
| 2026-05-04 14:55 | 46.84954 | 1.04737 | 17099 ft | 290 kts | 183° |
| 2026-05-04 14:55 | 46.82951 | 1.04652 | 16813 ft | 287 kts | 183° |
| 2026-05-04 14:55 | 46.80960 | 1.04568 | 16515 ft | 287 kts | 183° |
| 2026-05-04 14:55 | 46.78949 | 1.04483 | 16209 ft | 292 kts | 183° |
| 2026-05-04 14:56 | 46.76903 | 1.04397 | 15901 ft | 295 kts | 183° |
| 2026-05-04 14:56 | 46.74857 | 1.04310 | 15591 ft | 294 kts | 183° |
| 2026-05-04 14:56 | 46.72818 | 1.04224 | 15285 ft | 291 kts | 183° |
| 2026-05-04 14:56 | 46.70799 | 1.04139 | 14978 ft | 289 kts | 183° |
| 2026-05-04 14:57 | 46.68798 | 1.04055 | 14676 ft | 287 kts | 183° |
| 2026-05-04 14:57 | 46.66809 | 1.03971 | 14378 ft | 284 kts | 182° |
| 2026-05-04 14:57 | 46.64847 | 1.03889 | 14084 ft | 282 kts | 182° |
| 2026-05-04 14:57 | 46.62895 | 1.03807 | 13786 ft | 280 kts | 182° |
| 2026-05-04 14:58 | 46.60956 | 1.03725 | 13456 ft | 278 kts | 182° |
| 2026-05-04 14:58 | 46.59027 | 1.03645 | 13142 ft | 276 kts | 182° |
| 2026-05-04 14:58 | 46.57120 | 1.03565 | 12840 ft | 273 kts | 182° |
| 2026-05-04 14:58 | 46.55231 | 1.03485 | 12544 ft | 270 kts | 182° |
| 2026-05-04 14:59 | 46.53335 | 1.03406 | 12265 ft | 276 kts | 182° |
| 2026-05-04 14:59 | 46.51412 | 1.03637 | 11930 ft | 281 kts | 163° |
| 2026-05-04 14:59 | 46.47810 | 1.05899 | 11375 ft | 283 kts | 158° |
| 2026-05-04 15:00 | 46.46013 | 1.07065 | 11093 ft | 283 kts | 157° |
| 2026-05-04 15:00 | 46.44220 | 1.08238 | 10806 ft | 283 kts | 157° |
| 2026-05-04 15:00 | 46.42429 | 1.09415 | 10512 ft | 283 kts | 157° |
| 2026-05-04 15:01 | 46.38860 | 1.11765 | 9939 ft | 281 kts | 156° |
| 2026-05-04 15:01 | 46.37085 | 1.12934 | 9621 ft | 279 kts | 156° |
| 2026-05-04 15:01 | 46.35328 | 1.14090 | 9311 ft | 276 kts | 157° |
| 2026-05-04 15:01 | 46.33583 | 1.15236 | 9020 ft | 274 kts | 157° |
| 2026-05-04 15:02 | 46.31862 | 1.16370 | 8739 ft | 270 kts | 157° |
| 2026-05-04 15:02 | 46.30159 | 1.17491 | 8457 ft | 267 kts | 157° |
| 2026-05-04 15:02 | 46.28475 | 1.18597 | 8180 ft | 265 kts | 157° |
| 2026-05-04 15:02 | 46.26805 | 1.19694 | 7897 ft | 262 kts | 157° |
| 2026-05-04 15:03 | 46.25150 | 1.20779 | 7633 ft | 260 kts | 157° |
| 2026-05-04 15:03 | 46.23515 | 1.21851 | 7364 ft | 257 kts | 157° |
| 2026-05-04 15:03 | 46.21915 | 1.22900 | 7103 ft | 255 kts | 157° |
| 2026-05-04 15:03 | 46.20306 | 1.23953 | 6838 ft | 253 kts | 157° |
| 2026-05-04 15:04 | 46.18687 | 1.25013 | 6577 ft | 259 kts | 157° |
| 2026-05-04 15:04 | 46.17053 | 1.26081 | 6334 ft | 257 kts | 157° |
| 2026-05-04 15:04 | 46.15443 | 1.27133 | 6187 ft | 250 kts | 157° |
| 2026-05-04 15:04 | 46.13880 | 1.28151 | 6058 ft | 243 kts | 157° |
| 2026-05-04 15:05 | 46.12376 | 1.29133 | 5986 ft | 231 kts | 157° |
| 2026-05-04 15:05 | 46.10937 | 1.30072 | 5863 ft | 223 kts | 157° |
| 2026-05-04 15:05 | 46.09547 | 1.30980 | 5724 ft | 214 kts | 157° |
| 2026-05-04 15:05 | 46.08233 | 1.31836 | 5611 ft | 201 kts | 158° |
| 2026-05-04 15:06 | 46.06991 | 1.32644 | 5457 ft | 191 kts | 158° |
| 2026-05-04 15:06 | 46.05789 | 1.33427 | 5359 ft | 189 kts | 158° |
| 2026-05-04 15:06 | 46.04573 | 1.34116 | 5213 ft | 187 kts | 172° |
| 2026-05-04 15:07 | 46.02166 | 1.33064 | 4806 ft | 186 kts | 209° |
| 2026-05-04 15:07 | 46.01058 | 1.32114 | 4566 ft | 185 kts | 211° |
| 2026-05-04 15:07 | 45.99972 | 1.31120 | 4310 ft | 185 kts | 212° |
| 2026-05-04 15:07 | 45.98898 | 1.30124 | 4074 ft | 183 kts | 212° |
| 2026-05-04 15:08 | 45.97836 | 1.29128 | 3850 ft | 183 kts | 212° |
| 2026-05-04 15:08 | 45.96808 | 1.28153 | 3619 ft | 168 kts | 212° |
| 2026-05-04 15:08 | 45.95891 | 1.27283 | 3431 ft | 149 kts | 211° |
| 2026-05-04 15:08 | 45.95038 | 1.26482 | 3219 ft | 145 kts | 211° |
| 2026-05-04 15:09 | 45.94193 | 1.25685 | 3038 ft | 146 kts | 212° |
| 2026-05-04 15:09 | 45.93361 | 1.24898 | 2832 ft | 142 kts | 212° |
| 2026-05-04 15:09 | 45.92540 | 1.24087 | 2627 ft | 144 kts | 212° |
| 2026-05-04 15:10 | 45.90848 | 1.22547 | 2267 ft | 146 kts | 212° |
| 2026-05-04 15:10 | 45.90007 | 1.21730 | 2030 ft | 145 kts | 213° |
| 2026-05-04 15:10 | 45.88325 | 1.20146 | 1655 ft | 146 kts | 213° |
| 2026-05-04 15:11 | 45.87488 | 1.19363 | 1449 ft | 141 kts | 214° |
| 2026-05-04 15:11 | 45.86696 | 1.18614 | 1316 ft | 127 kts | 214° |
| 2026-05-04 15:11 | 45.86166 | 1.18114 | 1314 ft | 58 kts | 213° |
| 2026-05-04 15:11 | 45.85861 | 1.17827 | 1316 ft | 52 kts | 213° |
| 2026-05-04 15:12 | 45.85573 | 1.17559 | 1315 ft | 46 kts | 212° |
| 2026-05-04 15:12 | 45.85399 | 1.17385 | 1315 ft | 22 kts | 233° |
| 2026-05-04 15:12 | 45.85452 | 1.17242 | 1317 ft | 18 kts | 351° |
| 2026-05-04 15:12 | 45.85575 | 1.17284 | 1317 ft | 18 kts | 35° |
| 2026-05-04 15:13 | 45.85682 | 1.17388 | 1317 ft | 19 kts | 33° |
| 2026-05-04 15:13 | 45.85801 | 1.17499 | 1317 ft | 21 kts | 33° |
| 2026-05-04 15:13 | 45.85928 | 1.17621 | 1317 ft | 23 kts | 33° |
| 2026-05-04 15:13 | 45.86049 | 1.17736 | 1317 ft | 14 kts | 33° |
| 2026-05-04 15:14 | 45.86102 | 1.17766 | 1317 ft | 6 kts | 336° |
| 2026-05-04 15:14 | 45.86127 | 1.17718 | 1317 ft | 6 kts | 306° |
| 2026-05-04 15:14 | 45.86140 | 1.17714 | 1317 ft | 3 kts | 11° |
| 2026-05-04 15:14 | 45.86147 | 1.17727 | 1317 ft | 0 kts | 67° |